Time;durP1;ratioP1;P1;durP2;ratioP2;P2;SDS_P1;SDS_P2;PMS_P1;PMS_P2;Temp;Humidity;BMP_temperature;BMP_pressure;BME280_temperature;BME280_humidity;BME280_pressure;Samples;Min_cycle;Max_cycle;Signal;HPM_P1;HPM_P2
2021/04/04 00:00:27;;;;;;;4.45;3.90;;;5.20;72.50;;;;;;4856994;29;20217;-82
2021/04/04 00:02:54;;;;;;;4.32;3.92;;;5.20;73.00;;;;;;4856377;29;20264;-81
2021/04/04 00:05:21;;;;;;;3.72;3.42;;;5.20;73.40;;;;;;4856492;29;20231;-82
2021/04/04 00:07:48;;;;;;;4.40;3.60;;;5.10;73.50;;;;;;4856227;29;20223;-82
2021/04/04 00:10:15;;;;;;;5.47;4.80;;;5.10;74.10;;;;;;4855340;29;20216;-82
2021/04/04 00:12:43;;;;;;;6.80;4.20;;;5.10;75.00;;;;;;4855430;29;20789;-81
2021/04/04 00:15:12;;;;;;;6.97;4.15;;;5.00;74.40;;;;;;4855708;29;20219;-81
2021/04/04 00:17:39;;;;;;;6.03;4.45;;;5.00;74.70;;;;;;4855855;29;20248;-81
2021/04/04 00:20:07;;;;;;;5.72;4.72;;;4.90;75.00;;;;;;4855363;29;20217;-82
2021/04/04 00:22:34;;;;;;;4.00;3.70;;;4.80;75.70;;;;;;4854566;29;20249;-82
2021/04/04 00:25:00;;;;;;;5.07;4.78;;;4.70;76.60;;;;;;4854771;29;20389;-82
2021/04/04 00:27:26;;;;;;;6.22;4.70;;;4.60;77.40;;;;;;4855094;29;20217;-81
2021/04/04 00:29:53;;;;;;;3.80;3.50;;;4.50;77.80;;;;;;4854616;29;20209;-81
2021/04/04 00:32:19;;;;;;;6.75;4.63;;;4.50;78.30;;;;;;4854510;29;20243;-82
2021/04/04 00:34:46;;;;;;;5.10;4.70;;;4.50;78.80;;;;;;4855521;29;20209;-82
2021/04/04 00:37:12;;;;;;;5.38;4.68;;;4.50;78.90;;;;;;4853240;29;20293;-82
2021/04/04 00:39:38;;;;;;;8.23;4.10;;;4.40;79.40;;;;;;4855345;29;20213;-82
2021/04/04 00:42:05;;;;;;;4.55;4.05;;;4.10;80.80;;;;;;4854690;29;20229;-82
2021/04/04 00:44:31;;;;;;;4.07;3.75;;;4.10;81.90;;;;;;4854641;29;20309;-81
2021/04/04 00:46:58;;;;;;;6.40;3.72;;;4.30;81.90;;;;;;4855306;29;20213;-82
2021/04/04 00:49:24;;;;;;;4.47;3.17;;;4.30;81.60;;;;;;4855067;29;20230;-82
2021/04/04 00:51:52;;;;;;;6.18;4.95;;;4.30;81.60;;;;;;4855829;29;20252;-81
2021/04/04 00:54:19;;;;;;;5.20;3.55;;;4.30;81.60;;;;;;4855193;29;20675;-82
2021/04/04 00:56:45;;;;;;;4.80;4.13;;;4.40;81.60;;;;;;4855462;29;20304;-81
2021/04/04 00:59:12;;;;;;;10.82;4.80;;;4.40;81.20;;;;;;4855864;29;20261;-81
2021/04/04 01:01:39;;;;;;;6.38;5.78;;;4.50;81.20;;;;;;4855218;29;20233;-82
2021/04/04 01:04:07;;;;;;;3.85;3.50;;;4.50;80.90;;;;;;4855443;29;20233;-80
2021/04/04 01:06:33;;;;;;;4.50;3.72;;;4.50;80.70;;;;;;4855758;29;20209;-82
2021/04/04 01:09:00;;;;;;;6.97;4.07;;;4.50;80.70;;;;;;4854785;29;20246;-81
2021/04/04 01:11:36;;;;;;;4.75;4.13;;;4.50;80.90;;;;;;4855143;29;20245;-82
2021/04/04 01:14:11;;;;;;;4.20;3.42;;;4.50;81.10;;;;;;4855358;29;20217;-82
2021/04/04 01:16:40;;;;;;;4.55;4.15;;;4.50;81.10;;;;;;4855305;29;20216;-81
2021/04/04 01:19:11;;;;;;;3.92;3.63;;;4.40;81.60;;;;;;4855672;29;20218;-82
2021/04/04 01:21:41;;;;;;;4.20;3.80;;;4.50;81.40;;;;;;4855561;29;20237;-81
2021/04/04 01:24:20;;;;;;;5.65;4.70;;;4.50;81.40;;;;;;4854705;29;20233;-80
2021/04/04 01:26:56;;;;;;;3.70;3.40;;;4.50;81.90;;;;;;4854707;29;20211;-81
2021/04/04 01:29:26;;;;;;;5.00;3.88;;;4.40;82.50;;;;;;4855200;29;20219;-81
2021/04/04 01:31:53;;;;;;;5.30;4.75;;;4.40;82.90;;;;;;4855270;29;20662;-82
2021/04/04 01:34:22;;;;;;;8.85;4.78;;;4.40;83.30;;;;;;4855332;29;20209;-81
2021/04/04 01:36:52;;;;;;;6.50;3.88;;;4.40;83.60;;;;;;4854734;29;20213;-81
2021/04/04 01:39:21;;;;;;;9.90;4.93;;;4.30;83.90;;;;;;4852684;29;20283;-82
2021/04/04 01:41:49;;;;;;;5.20;4.40;;;4.20;84.40;;;;;;4850839;29;20319;-81
2021/04/04 01:44:19;;;;;;;4.95;4.50;;;4.20;85.10;;;;;;4849192;29;20240;-82
2021/04/04 01:46:48;;;;;;;7.85;5.97;;;4.20;85.60;;;;;;4851722;29;20478;-82
2021/04/04 01:49:15;;;;;;;7.07;4.25;;;4.20;85.90;;;;;;4854676;29;20213;-82
2021/04/04 01:51:43;;;;;;;4.85;4.45;;;4.10;86.30;;;;;;4856682;29;20237;-81
2021/04/04 01:54:11;;;;;;;4.80;4.32;;;4.10;86.70;;;;;;4857734;29;20205;-82
2021/04/04 01:56:38;;;;;;;5.85;5.25;;;4.10;87.30;;;;;;4857727;29;20216;-81
2021/04/04 01:59:05;;;;;;;4.30;3.90;;;3.90;87.80;;;;;;4860447;29;20220;-80
2021/04/04 02:01:32;;;;;;;5.28;4.40;;;3.90;88.20;;;;;;4860811;29;20232;-81
2021/04/04 02:04:04;;;;;;;4.15;3.80;;;3.90;88.50;;;;;;4853690;29;20228;-80
2021/04/04 02:06:31;;;;;;;9.07;3.63;;;3.80;88.70;;;;;;4853454;29;20213;-82
2021/04/04 02:09:00;;;;;;;4.55;4.13;;;3.80;89.10;;;;;;4853244;29;20219;-82
2021/04/04 02:11:30;;;;;;;5.68;4.53;;;3.70;89.20;;;;;;4852898;29;20664;-80
2021/04/04 02:13:58;;;;;;;6.28;5.05;;;3.70;89.80;;;;;;4853129;29;20217;-81
2021/04/04 02:16:26;;;;;;;5.95;3.72;;;3.70;89.90;;;;;;4853077;29;20661;-82
2021/04/04 02:18:53;;;;;;;5.75;3.40;;;3.70;90.10;;;;;;4851559;29;20554;-81
2021/04/04 02:21:21;;;;;;;6.93;5.50;;;3.70;90.20;;;;;;4851815;29;20216;-80
2021/04/04 02:23:47;;;;;;;5.78;4.20;;;3.70;90.30;;;;;;4856623;29;20266;-81
2021/04/04 02:26:14;;;;;;;7.82;4.32;;;3.70;90.50;;;;;;4857529;29;20224;-82
2021/04/04 02:28:40;;;;;;;4.55;4.15;;;3.70;90.80;;;;;;4856694;29;20287;-82
2021/04/04 02:31:12;;;;;;;4.00;3.58;;;3.70;90.80;;;;;;4856249;29;20227;-80
2021/04/04 02:33:48;;;;;;;4.00;3.67;;;3.70;90.70;;;;;;4855318;29;20225;-82
2021/04/04 02:36:15;;;;;;;5.75;4.60;;;3.70;90.70;;;;;;4856327;29;20254;-82
2021/04/04 02:38:46;;;;;;;8.00;4.47;;;3.60;90.60;;;;;;4856229;29;20213;-82
2021/04/04 02:41:14;;;;;;;4.78;3.28;;;3.60;90.60;;;;;;4856512;29;20268;-83
2021/04/04 02:43:43;;;;;;;4.05;3.67;;;3.60;90.60;;;;;;4856172;29;20213;-83
2021/04/04 02:46:12;;;;;;;4.25;3.85;;;3.60;90.60;;;;;;4855385;29;20212;-81
2021/04/04 02:48:42;;;;;;;6.65;4.20;;;3.60;90.50;;;;;;4855417;29;20223;-82
2021/04/04 02:51:11;;;;;;;4.90;4.40;;;3.60;90.50;;;;;;4856509;29;20217;-79
2021/04/04 02:53:41;;;;;;;7.18;4.07;;;3.60;90.40;;;;;;4867159;29;20201;-78
2021/04/04 02:56:12;;;;;;;4.40;4.00;;;3.60;90.30;;;;;;4866965;29;20209;-80
2021/04/04 02:58:41;;;;;;;6.13;4.00;;;3.60;90.40;;;;;;4865319;29;20228;-79
2021/04/04 03:01:09;;;;;;;6.70;3.33;;;3.50;90.50;;;;;;4863572;29;20227;-82
2021/04/04 03:03:39;;;;;;;4.22;3.88;;;3.40;90.90;;;;;;4857895;29;20227;-81
2021/04/04 03:06:09;;;;;;;5.43;3.63;;;3.40;91.00;;;;;;4858537;29;20216;-81
2021/04/04 03:08:39;;;;;;;7.45;4.05;;;3.30;91.00;;;;;;4859238;29;20223;-81
2021/04/04 03:11:06;;;;;;;5.05;4.00;;;3.20;91.30;;;;;;4855947;29;20216;-81
2021/04/04 03:13:33;;;;;;;6.55;3.17;;;3.20;91.30;;;;;;4855912;29;20219;-81
2021/04/04 03:16:01;;;;;;;4.30;3.80;;;3.10;91.70;;;;;;4855889;29;20237;-81
2021/04/04 03:18:28;;;;;;;3.70;3.50;;;3.00;92.10;;;;;;4854995;29;20668;-82
2021/04/04 03:20:56;;;;;;;4.53;3.25;;;3.00;92.20;;;;;;4854583;29;20690;-82
2021/04/04 03:23:24;;;;;;;3.92;3.55;;;3.10;92.20;;;;;;4854755;29;20244;-81
2021/04/04 03:25:50;;;;;;;3.85;3.55;;;3.20;92.40;;;;;;4854703;29;20293;-81
2021/04/04 03:28:18;;;;;;;4.85;3.70;;;3.20;92.30;;;;;;4854966;29;20213;-82
2021/04/04 03:30:46;;;;;;;10.38;4.28;;;3.10;92.40;;;;;;4855258;29;20217;-81
2021/04/04 03:33:15;;;;;;;6.55;4.00;;;3.00;92.50;;;;;;4855334;29;20233;-82
2021/04/04 03:35:43;;;;;;;11.88;4.47;;;2.90;92.70;;;;;;4854136;29;20217;-81
2021/04/04 03:38:11;;;;;;;5.10;3.85;;;2.90;92.80;;;;;;4854626;29;20225;-81
2021/04/04 03:40:37;;;;;;;5.50;3.97;;;2.90;92.70;;;;;;4854733;29;20218;-81
2021/04/04 03:43:09;;;;;;;4.82;3.25;;;3.00;92.70;;;;;;4854105;29;20240;-82
2021/04/04 03:45:35;;;;;;;3.63;3.30;;;3.00;92.80;;;;;;4854663;29;20602;-82
2021/04/04 03:48:05;;;;;;;7.85;3.33;;;3.00;92.80;;;;;;4854928;29;20213;-82
2021/04/04 03:50:34;;;;;;;6.90;3.97;;;3.00;92.80;;;;;;4854966;29;20238;-82
2021/04/04 03:53:01;;;;;;;3.70;3.30;;;3.00;92.80;;;;;;4854263;29;20243;-81
2021/04/04 03:55:29;;;;;;;4.22;3.78;;;3.00;92.80;;;;;;4854182;29;20222;-82
2021/04/04 03:57:56;;;;;;;3.88;3.30;;;3.00;92.90;;;;;;4855461;29;20224;-81
2021/04/04 04:00:26;;;;;;;3.40;3.10;;;3.10;93.00;;;;;;4855292;29;20211;-82
2021/04/04 04:02:54;;;;;;;4.20;3.10;;;3.00;92.90;;;;;;4854703;29;20257;-80
2021/04/04 04:05:24;;;;;;;7.97;4.10;;;3.00;92.90;;;;;;4854391;29;20231;-82
2021/04/04 04:07:52;;;;;;;4.72;3.58;;;3.00;93.00;;;;;;4854263;29;20209;-82
2021/04/04 04:10:19;;;;;;;3.50;3.15;;;3.00;93.10;;;;;;4852839;29;20216;-82
2021/04/04 04:12:47;;;;;;;2.85;2.65;;;3.00;93.10;;;;;;4854248;29;20650;-82
2021/04/04 04:15:15;;;;;;;3.55;3.25;;;3.00;93.10;;;;;;4854027;29;20279;-81
2021/04/04 04:17:42;;;;;;;5.97;3.72;;;3.00;93.10;;;;;;4854035;29;20224;-82
2021/04/04 04:20:10;;;;;;;4.68;4.38;;;3.00;93.10;;;;;;4854418;29;20226;-83
2021/04/04 04:22:38;;;;;;;5.50;3.47;;;3.00;93.00;;;;;;4850003;29;20254;-82
2021/04/04 04:25:05;;;;;;;22.23;4.95;;;3.00;93.00;;;;;;4847948;29;20775;-83
2021/04/04 04:27:32;;;;;;;4.03;3.60;;;3.00;93.00;;;;;;4847994;29;20688;-82
2021/04/04 04:30:01;;;;;;;5.05;4.05;;;3.00;93.20;;;;;;4847885;29;20217;-83
2021/04/04 04:32:32;;;;;;;5.05;3.38;;;3.10;93.30;;;;;;4847758;29;20279;-83
2021/04/04 04:35:01;;;;;;;3.40;3.10;;;3.10;93.30;;;;;;4847970;29;20230;-83
2021/04/04 04:37:28;;;;;;;6.95;3.10;;;3.10;93.40;;;;;;4848134;29;20239;-82
2021/04/04 04:39:58;;;;;;;4.05;3.58;;;3.10;93.40;;;;;;4847967;29;20671;-82
2021/04/04 04:42:25;;;;;;;4.60;3.15;;;3.10;93.60;;;;;;4848113;29;20261;-83
2021/04/04 04:44:52;;;;;;;4.85;4.25;;;3.10;93.60;;;;;;4847441;29;20229;-83
2021/04/04 04:47:19;;;;;;;7.80;4.28;;;3.10;93.60;;;;;;4847014;29;20227;-82
2021/04/04 04:49:46;;;;;;;4.18;3.78;;;3.00;93.60;;;;;;4847439;29;20867;-82
2021/04/04 04:52:12;;;;;;;4.45;3.47;;;3.00;93.60;;;;;;4847409;29;20244;-82
2021/04/04 04:54:41;;;;;;;5.05;3.35;;;2.90;93.70;;;;;;4847416;29;20216;-82
2021/04/04 04:57:09;;;;;;;3.70;3.15;;;2.90;94.00;;;;;;4847743;29;20221;-82
2021/04/04 04:59:35;;;;;;;6.72;4.80;;;2.80;94.10;;;;;;4847458;29;20712;-83
2021/04/04 05:02:04;;;;;;;4.03;3.30;;;2.60;94.30;;;;;;4846999;29;20669;-82
2021/04/04 05:04:31;;;;;;;4.03;3.67;;;2.60;94.70;;;;;;4847771;29;20244;-82
2021/04/04 05:06:58;;;;;;;4.55;3.05;;;2.60;94.80;;;;;;4847584;29;20239;-82
2021/04/04 05:09:25;;;;;;;4.43;3.95;;;2.70;94.80;;;;;;4847451;29;20217;-82
2021/04/04 05:11:52;;;;;;;5.30;4.22;;;2.70;94.90;;;;;;4846703;29;20235;-82
2021/04/04 05:14:20;;;;;;;4.85;4.13;;;2.70;95.00;;;;;;4847294;29;20209;-83
2021/04/04 05:16:47;;;;;;;4.53;3.60;;;2.70;94.90;;;;;;4847217;29;20215;-83
2021/04/04 05:19:14;;;;;;;6.10;4.50;;;2.60;95.00;;;;;;4846873;29;20225;-82
2021/04/04 05:21:43;;;;;;;5.97;4.07;;;2.50;95.30;;;;;;4846643;29;20235;-83
2021/04/04 05:24:13;;;;;;;5.80;4.47;;;2.50;95.60;;;;;;4846470;29;20240;-82
2021/04/04 05:26:41;;;;;;;7.63;4.30;;;2.50;95.80;;;;;;4846253;29;20239;-83
2021/04/04 05:29:09;;;;;;;7.30;4.10;;;2.50;95.80;;;;;;4847411;29;20227;-82
2021/04/04 05:31:44;;;;;;;6.95;4.40;;;2.60;95.80;;;;;;4846750;29;20237;-83
2021/04/04 05:34:12;;;;;;;4.32;3.53;;;2.70;95.80;;;;;;4846464;29;20747;-83
2021/04/04 05:36:46;;;;;;;6.07;4.07;;;2.80;95.70;;;;;;4846628;29;20215;-83
2021/04/04 05:39:13;;;;;;;6.30;4.50;;;2.90;95.70;;;;;;4847151;29;20681;-83
2021/04/04 05:41:42;;;;;;;3.83;3.53;;;2.90;95.60;;;;;;4846690;29;20243;-83
2021/04/04 05:44:10;;;;;;;4.80;3.22;;;2.90;95.50;;;;;;4846853;29;20228;-83
2021/04/04 05:46:40;;;;;;;6.70;6.20;;;3.00;95.70;;;;;;4847185;29;20215;-82
2021/04/04 05:49:27;;;;;;;3.78;3.47;;;3.10;95.20;;;;;;4846941;29;20618;-83
2021/04/04 05:52:00;;;;;;;5.72;4.75;;;3.20;95.10;;;;;;4846845;29;20237;-82
2021/04/04 05:54:52;;;;;;;8.32;4.40;;;3.20;95.00;;;;;;4846961;29;20226;-83
2021/04/04 05:57:20;;;;;;;5.80;4.60;;;3.30;95.00;;;;;;4840429;29;20246;-83
2021/04/04 05:59:48;;;;;;;5.25;4.72;;;3.30;94.90;;;;;;4846815;29;20242;-83
2021/04/04 06:02:49;;;;;;;6.43;5.00;;;3.40;94.70;;;;;;4846486;29;20236;-83
2021/04/04 06:05:43;;;;;;;4.53;3.78;;;3.50;94.70;;;;;;4846846;29;20235;-83
2021/04/04 06:08:37;;;;;;;6.22;4.43;;;3.60;94.30;;;;;;4847180;29;20213;-83
2021/04/04 06:11:10;;;;;;;3.97;3.58;;;3.50;94.70;;;;;;4846627;29;20216;-83
2021/04/04 06:13:51;;;;;;;4.65;4.25;;;3.60;94.90;;;;;;4845824;29;20224;-83
2021/04/04 06:16:27;;;;;;;6.93;4.25;;;3.70;94.40;;;;;;4845331;29;20205;-82
2021/04/04 06:19:05;;;;;;;6.47;4.55;;;3.70;94.10;;;;;;4827998;29;20219;-82
2021/04/04 06:21:36;;;;;;;5.82;3.95;;;3.90;94.10;;;;;;4840971;29;20234;-83
2021/04/04 06:24:10;;;;;;;9.07;3.95;;;4.00;93.80;;;;;;4845887;29;20672;-82
2021/04/04 06:26:42;;;;;;;6.55;4.32;;;4.10;93.50;;;;;;4845989;29;20281;-81
2021/04/04 06:29:13;;;;;;;5.85;4.70;;;4.20;93.60;;;;;;4846171;29;20209;-83
2021/04/04 06:31:52;;;;;;;5.63;5.00;;;4.30;93.80;;;;;;4846186;29;20233;-82
2021/04/04 06:34:29;;;;;;;5.55;4.38;;;4.40;93.90;;;;;;4846208;29;20204;-82
2021/04/04 06:37:14;;;;;;;8.05;4.63;;;4.50;93.40;;;;;;4851055;29;20197;-81
2021/04/04 06:39:57;;;;;;;6.20;5.60;;;4.70;93.10;;;;;;4867385;29;20197;-82
2021/04/04 06:42:34;;;;;;;7.57;4.45;;;4.80;92.60;;;;;;4864604;29;20233;-82
2021/04/04 06:45:10;;;;;;;7.05;6.07;;;4.90;91.50;;;;;;4850503;29;20237;-82
2021/04/04 06:47:47;;;;;;;5.85;5.30;;;5.00;91.30;;;;;;4850664;29;20213;-82
2021/04/04 06:50:20;;;;;;;7.30;5.00;;;5.20;91.20;;;;;;4850607;29;20651;-82
2021/04/04 06:52:59;;;;;;;9.60;5.40;;;5.20;91.00;;;;;;4849782;29;20318;-83
2021/04/04 06:55:37;;;;;;;6.10;5.15;;;5.30;90.80;;;;;;4850329;29;20280;-82
2021/04/04 06:58:43;;;;;;;6.30;5.10;;;5.40;90.80;;;;;;4850021;29;20220;-83
2021/04/04 07:01:18;;;;;;;5.78;5.15;;;5.50;90.70;;;;;;4846684;29;20240;-83
2021/04/04 07:03:48;;;;;;;5.43;4.93;;;5.70;90.70;;;;;;4850080;29;20216;-83
2021/04/04 07:06:53;;;;;;;5.97;5.40;;;5.80;90.50;;;;;;4849725;29;20244;-83
2021/04/04 07:09:46;;;;;;;4.93;4.43;;;5.90;90.30;;;;;;4850345;29;20193;-82
2021/04/04 07:12:24;;;;;;;5.18;4.78;;;5.90;90.00;;;;;;4849273;29;20237;-82
2021/04/04 07:15:00;;;;;;;4.90;4.40;;;6.00;89.80;;;;;;4849057;29;20208;-83
2021/04/04 07:17:40;;;;;;;7.05;4.55;;;5.90;88.80;;;;;;4849092;29;20639;-83
2021/04/04 07:20:31;;;;;;;5.53;4.93;;;6.00;87.90;;;;;;4849590;29;20216;-83
2021/04/04 07:23:24;;;;;;;8.18;6.00;;;6.10;88.20;;;;;;4848782;29;20270;-83
2021/04/04 07:26:01;;;;;;;6.93;5.60;;;6.20;87.70;;;;;;4849510;29;20229;-83
2021/04/04 07:29:03;;;;;;;6.13;4.45;;;6.30;87.20;;;;;;4849508;29;20243;-82
2021/04/04 07:31:37;;;;;;;5.55;4.70;;;6.40;86.50;;;;;;4847440;29;20236;-82
2021/04/04 07:34:09;;;;;;;5.57;5.05;;;6.50;86.40;;;;;;4849146;29;20212;-82
2021/04/04 07:36:50;;;;;;;9.50;6.72;;;6.60;86.60;;;;;;4848911;29;20213;-82
2021/04/04 07:39:28;;;;;;;5.80;5.25;;;6.80;86.60;;;;;;4848887;29;20634;-82
2021/04/04 07:42:06;;;;;;;9.55;5.57;;;6.80;85.50;;;;;;4849008;29;20237;-82
2021/04/04 07:44:39;;;;;;;10.70;6.40;;;6.80;85.30;;;;;;4849283;29;20228;-83
2021/04/04 07:47:12;;;;;;;6.15;5.53;;;6.90;85.40;;;;;;4849548;29;20288;-83
2021/04/04 07:49:42;;;;;;;7.15;6.13;;;7.00;85.40;;;;;;4849354;29;20772;-82
2021/04/04 07:52:18;;;;;;;7.05;5.07;;;7.10;84.70;;;;;;4849228;29;20237;-82
2021/04/04 07:54:56;;;;;;;6.38;5.78;;;7.20;84.20;;;;;;4849039;29;20213;-82
2021/04/04 07:57:39;;;;;;;7.25;5.65;;;7.40;82.90;;;;;;4849293;29;20209;-82
2021/04/04 08:00:07;;;;;;;6.13;5.53;;;7.50;82.30;;;;;;4848547;29;20707;-83
2021/04/04 08:02:41;;;;;;;12.75;5.95;;;7.60;83.50;;;;;;4847855;29;20244;-83
2021/04/04 08:05:10;;;;;;;10.35;5.47;;;7.70;83.70;;;;;;4848710;29;20229;-82
2021/04/04 08:07:47;;;;;;;5.00;4.57;;;7.90;82.70;;;;;;4848367;29;20220;-82
2021/04/04 08:10:23;;;;;;;8.57;5.10;;;8.10;81.40;;;;;;4848762;29;20220;-81
2021/04/04 08:12:54;;;;;;;9.13;6.05;;;8.20;81.90;;;;;;4847512;29;20692;-81
2021/04/04 08:15:24;;;;;;;8.10;5.10;;;8.30;80.40;;;;;;4847288;29;20209;-81
2021/04/04 08:17:51;;;;;;;6.80;5.60;;;8.30;81.00;;;;;;4847723;29;20217;-82
2021/04/04 08:20:22;;;;;;;6.85;5.68;;;8.40;80.10;;;;;;4847612;29;20247;-81
2021/04/04 08:22:55;;;;;;;6.85;5.53;;;8.40;79.80;;;;;;4847198;29;20266;-81
2021/04/04 08:25:28;;;;;;;7.68;5.60;;;8.40;80.20;;;;;;4847062;29;20305;-82
2021/04/04 08:27:57;;;;;;;6.35;5.40;;;8.60;79.10;;;;;;4846990;29;20220;-81
2021/04/04 08:30:29;;;;;;;8.63;5.55;;;8.70;78.50;;;;;;4847896;29;20216;-84
2021/04/04 08:33:02;;;;;;;7.13;5.93;;;8.70;78.00;;;;;;4847873;29;20608;-83
2021/04/04 08:35:31;;;;;;;10.48;6.60;;;8.80;77.90;;;;;;4848444;29;20210;-83
2021/04/04 08:38:04;;;;;;;6.55;6.00;;;8.90;77.40;;;;;;4847536;29;20215;-84
2021/04/04 08:40:33;;;;;;;7.65;6.93;;;9.00;77.20;;;;;;4847806;29;20222;-83
2021/04/04 08:43:00;;;;;;;7.22;5.90;;;9.10;76.70;;;;;;4847525;29;20240;-84
2021/04/04 08:45:35;;;;;;;6.53;5.50;;;9.20;76.40;;;;;;4852194;29;20229;-83
2021/04/04 08:48:12;;;;;;;6.00;5.25;;;9.30;75.50;;;;;;4848415;29;20305;-83
2021/04/04 08:50:44;;;;;;;7.07;4.53;;;9.40;75.60;;;;;;4848254;29;20226;-83
2021/04/04 08:53:24;;;;;;;6.00;4.50;;;9.40;74.20;;;;;;4848645;29;20480;-84
2021/04/04 08:55:52;;;;;;;4.80;4.40;;;9.60;73.40;;;;;;4850925;29;20459;-83
2021/04/04 08:58:21;;;;;;;5.47;4.97;;;9.70;71.70;;;;;;4849296;29;20464;-83
2021/04/04 09:00:55;;;;;;;5.50;5.00;;;9.70;70.00;;;;;;4851385;29;20459;-83
2021/04/04 09:03:29;;;;;;;5.00;4.50;;;9.70;69.90;;;;;;4849656;29;20479;-83
2021/04/04 09:06:13;;;;;;;5.80;5.17;;;10.00;69.20;;;;;;4848959;29;20491;-84
2021/04/04 09:08:41;;;;;;;6.20;5.10;;;10.10;68.10;;;;;;4849664;29;20462;-83
2021/04/04 09:11:14;;;;;;;7.10;5.13;;;10.30;67.50;;;;;;4847219;29;20456;-83
2021/04/04 09:13:50;;;;;;;6.03;4.63;;;10.40;66.50;;;;;;4831249;29;20460;-83
2021/04/04 09:16:29;;;;;;;6.30;5.70;;;10.50;64.60;;;;;;4849473;29;20769;-83
2021/04/04 09:18:56;;;;;;;7.73;5.50;;;10.60;66.00;;;;;;4849976;29;20501;-82
2021/04/04 09:21:25;;;;;;;5.23;4.80;;;10.70;64.70;;;;;;4848802;29;20468;-83
2021/04/04 09:24:03;;;;;;;5.53;4.63;;;10.90;64.50;;;;;;4850025;29;21001;-84
2021/04/04 09:26:35;;;;;;;5.07;4.67;;;11.10;63.70;;;;;;4849222;29;20474;-84
2021/04/04 09:29:02;;;;;;;6.10;4.20;;;11.20;61.00;;;;;;4850288;29;20937;-84
2021/04/04 09:31:32;;;;;;;5.80;4.77;;;11.30;63.00;;;;;;4849429;29;20477;-83
2021/04/04 09:34:02;;;;;;;4.20;3.80;;;11.50;63.30;;;;;;4849900;29;20458;-84
2021/04/04 09:36:42;;;;;;;5.37;4.07;;;11.70;62.10;;;;;;4849503;29;20457;-83
2021/04/04 09:39:10;;;;;;;4.90;4.40;;;12.00;59.70;;;;;;4850079;29;20488;-84
2021/04/04 09:42:00;;;;;;;6.10;4.97;;;12.20;59.70;;;;;;4849166;29;20477;-84
2021/04/04 09:44:47;;;;;;;4.63;4.17;;;12.50;56.80;;;;;;4846652;29;20493;-85
2021/04/04 09:47:14;;;;;;;4.60;4.27;;;12.80;57.50;;;;;;4844634;29;20537;-84
2021/04/04 09:49:43;;;;;;;5.70;3.53;;;13.00;55.90;;;;;;4844385;29;20497;-84
2021/04/04 09:52:23;;;;;;;5.00;3.63;;;13.30;54.10;;;;;;4841979;29;20504;-84
2021/04/04 09:55:03;;;;;;;3.77;3.47;;;13.50;52.80;;;;;;4807270;29;20554;-85
2021/04/04 09:57:46;;;;;;;4.37;3.67;;;13.50;51.90;;;;;;4808078;29;20471;-84
2021/04/04 10:00:27;;;;;;;5.30;3.20;;;13.60;52.10;;;;;;4807239;29;20493;-84
2021/04/04 10:02:55;;;;;;;6.07;4.20;;;13.70;51.70;;;;;;4808475;29;20480;-85
2021/04/04 10:05:39;;;;;;;4.13;3.73;;;13.80;51.10;;;;;;4807905;29;20494;-85
2021/04/04 10:08:14;;;;;;;3.67;3.10;;;13.90;51.00;;;;;;4807113;29;20511;-84
2021/04/04 10:10:42;;;;;;;3.57;3.23;;;13.90;49.40;;;;;;4834089;29;20877;-84
2021/04/04 10:13:09;;;;;;;3.47;2.70;;;13.70;48.30;;;;;;4847995;29;20847;-84
2021/04/04 10:15:41;;;;;;;3.40;3.20;;;13.10;46.80;;;;;;4847673;29;20519;-84
2021/04/04 10:18:07;;;;;;;4.67;3.53;;;12.60;47.20;;;;;;4848994;29;20464;-84
2021/04/04 10:23:39;;;;;;;;;;;;;;;;;;;;;
2021/04/04 10:26:09;;;;;;;3.83;3.53;;;12.30;48.30;;;;;;4820074;29;20495;-81
2021/04/04 10:28:42;;;;;;;4.20;3.70;;;12.20;48.70;;;;;;4816463;29;20458;-79
2021/04/04 10:31:08;;;;;;;3.53;3.23;;;12.30;49.60;;;;;;4819047;29;20444;-78
2021/04/04 10:33:35;;;;;;;5.23;4.83;;;12.20;49.60;;;;;;4816467;29;20478;-80
2021/04/04 10:36:11;;;;;;;3.77;2.67;;;12.40;49.40;;;;;;4817734;29;20452;-83
2021/04/04 10:38:37;;;;;;;4.63;4.10;;;12.00;47.90;;;;;;4815886;29;20455;-79
2021/04/04 10:41:04;;;;;;;6.90;3.60;;;11.80;48.70;;;;;;4813406;29;20455;-82
2021/04/04 10:43:36;;;;;;;4.00;3.70;;;11.70;48.30;;;;;;4816864;29;20483;-80
2021/04/04 10:46:07;;;;;;;3.53;3.23;;;11.60;49.10;;;;;;4819800;29;20661;-79
2021/04/04 10:48:35;;;;;;;3.20;2.93;;;11.60;49.50;;;;;;4829809;29;20549;-78
2021/04/04 10:51:03;;;;;;;3.73;2.87;;;11.70;49.70;;;;;;4829093;29;20459;-79
2021/04/04 10:53:29;;;;;;;3.70;3.30;;;11.80;48.10;;;;;;4828776;29;20550;-79
2021/04/04 10:55:55;;;;;;;3.43;3.13;;;11.80;48.50;;;;;;4828856;29;20460;-80
2021/04/04 10:58:24;;;;;;;4.30;3.10;;;11.90;48.50;;;;;;4828459;29;20519;-82
2021/04/04 11:00:51;;;;;;;3.30;3.00;;;11.90;47.20;;;;;;4817198;29;20456;-82
2021/04/04 11:03:21;;;;;;;3.57;2.87;;;12.00;47.10;;;;;;4808843;30;20477;-80
2021/04/04 11:05:48;;;;;;;3.73;3.30;;;12.40;47.70;;;;;;4809658;29;20526;-80
2021/04/04 11:08:15;;;;;;;3.50;2.97;;;13.10;48.30;;;;;;4816222;29;20478;-78
2021/04/04 11:10:41;;;;;;;3.27;2.97;;;13.70;48.40;;;;;;4811314;29;20488;-79
2021/04/04 11:13:08;;;;;;;3.70;3.37;;;14.30;45.50;;;;;;4811946;29;20537;-82
2021/04/04 11:15:37;;;;;;;3.80;3.37;;;15.00;45.40;;;;;;4816138;29;20441;-82
2021/04/04 11:18:13;;;;;;;3.27;2.97;;;15.60;44.50;;;;;;4817272;29;20482;-81
2021/04/04 11:20:44;;;;;;;5.30;3.20;;;16.30;42.90;;;;;;4816350;29;20454;-81
2021/04/04 11:23:11;;;;;;;3.30;3.03;;;16.70;42.00;;;;;;4813816;29;20472;-83
2021/04/04 11:25:38;;;;;;;3.13;2.87;;;17.00;39.70;;;;;;4815697;29;21032;-83
2021/04/04 11:28:18;;;;;;;4.87;3.90;;;17.20;39.80;;;;;;4811826;29;20462;-83
2021/04/04 11:30:48;;;;;;;3.80;3.50;;;17.70;39.50;;;;;;4802092;29;20493;-82
2021/04/04 11:33:29;;;;;;;3.23;2.93;;;17.90;38.30;;;;;;4806338;29;20890;-83
2021/04/04 11:36:06;;;;;;;3.50;3.20;;;18.00;39.60;;;;;;4801540;30;20555;-83
2021/04/04 11:38:34;;;;;;;3.70;3.40;;;18.60;40.60;;;;;;4803677;30;20475;-83
2021/04/04 11:41:15;;;;;;;3.10;2.90;;;19.30;37.70;;;;;;4807953;30;20461;-85
2021/04/04 11:43:42;;;;;;;5.90;3.77;;;19.50;36.10;;;;;;4803272;30;20524;-82
2021/04/04 11:46:41;;;;;;;4.70;4.27;;;19.60;36.10;;;;;;4802859;30;20562;-85
2021/04/04 11:49:33;;;;;;;5.10;4.70;;;19.70;36.50;;;;;;4803177;30;20441;-83
2021/04/04 11:52:01;;;;;;;4.03;3.73;;;19.80;35.80;;;;;;4807896;30;20475;-83
2021/04/04 15:23:00;;;;;;;3.83;3.20;;;20.90;29.60;;;;;;4787385;29;20466;-78
2021/04/04 15:25:27;;;;;;;4.43;3.57;;;19.80;29.40;;;;;;4848840;29;20530;-78
2021/04/04 15:27:53;;;;;;;4.73;4.33;;;18.90;30.00;;;;;;4848613;29;20467;-78
2021/04/04 15:30:28;;;;;;;4.40;4.00;;;18.60;31.30;;;;;;4842713;29;20470;-78
2021/04/04 15:32:56;;;;;;;3.50;3.20;;;18.40;31.60;;;;;;4833400;29;20508;-78
2021/04/04 15:35:34;;;;;;;3.67;3.17;;;17.50;31.70;;;;;;4838356;29;20462;-79
2021/04/04 15:38:01;;;;;;;3.90;3.50;;;16.50;33.10;;;;;;4840961;29;20470;-79
2021/04/04 15:40:29;;;;;;;3.50;3.20;;;16.40;34.00;;;;;;4844293;29;20453;-79
2021/04/04 15:42:56;;;;;;;3.90;3.60;;;16.20;34.30;;;;;;4839089;29;20471;-78
2021/04/04 15:45:24;;;;;;;6.97;3.60;;;16.10;35.00;;;;;;4834215;29;20493;-79
2021/04/04 15:48:02;;;;;;;4.70;3.53;;;16.10;35.20;;;;;;4843030;29;20482;-82
2021/04/04 16:10:00;;;;;;;3.90;3.60;;;17.10;35.50;;;;;;4769736;30;20451;-80
2021/04/04 16:12:28;;;;;;;3.43;3.13;;;16.70;35.60;;;;;;4808101;29;20481;-79
2021/04/04 16:14:54;;;;;;;4.67;3.67;;;16.80;35.90;;;;;;4839322;29;20466;-82
2021/04/04 16:17:21;;;;;;;4.10;3.07;;;17.20;36.40;;;;;;4845734;29;20501;-81
2021/04/04 16:19:47;;;;;;;4.30;3.90;;;16.80;36.10;;;;;;4846927;29;20472;-82
2021/04/04 16:22:14;;;;;;;4.00;3.60;;;16.20;36.00;;;;;;4846966;29;20449;-82
2021/04/04 16:31:52;;;;;;;;;;;;;;;;;;;;;
2021/04/04 16:53:31;;;;;;;5.13;4.40;;;15.10;40.70;;;;;;4738241;30;20508;-80
2021/04/04 16:55:58;;;;;;;3.97;3.60;;;15.10;40.40;;;;;;4814638;29;20476;-81
2021/04/04 16:58:26;;;;;;;4.53;4.03;;;15.30;40.70;;;;;;4838283;29;20473;-80
2021/04/04 17:00:52;;;;;;;6.00;4.00;;;15.50;40.20;;;;;;4836939;29;20460;-79
2021/04/04 17:03:18;;;;;;;3.90;2.97;;;15.40;39.90;;;;;;4839048;29;20457;-79
2021/04/04 17:05:45;;;;;;;3.80;3.37;;;15.30;39.70;;;;;;4837732;29;20540;-80
2021/04/04 17:08:11;;;;;;;5.40;3.70;;;15.50;40.40;;;;;;4839459;29;20450;-79
2021/04/04 17:10:37;;;;;;;4.47;3.70;;;15.30;40.20;;;;;;4837279;29;20448;-81
2021/04/04 17:13:04;;;;;;;3.40;3.10;;;15.60;40.30;;;;;;4836344;29;20569;-79
2021/04/04 17:15:30;;;;;;;3.73;3.30;;;15.60;39.90;;;;;;4837764;29;20452;-79
2021/04/04 17:17:57;;;;;;;4.77;4.37;;;15.70;39.90;;;;;;4835032;29;20454;-80
2021/04/04 17:20:23;;;;;;;4.40;3.40;;;15.60;39.90;;;;;;4832347;29;20952;-82
2021/04/04 17:22:49;;;;;;;4.33;3.30;;;15.50;40.20;;;;;;4836925;29;20477;-79
2021/04/04 17:25:16;;;;;;;5.70;3.30;;;15.50;40.00;;;;;;4836525;29;20634;-79
2021/04/04 17:27:42;;;;;;;4.93;4.43;;;15.40;40.40;;;;;;4836918;29;20545;-81
2021/04/04 17:30:20;;;;;;;4.97;4.50;;;15.40;40.90;;;;;;4837877;29;20477;-81
2021/04/04 17:32:47;;;;;;;4.57;4.23;;;15.20;40.40;;;;;;4843690;29;20538;-81